sensor_id;sensor_type;location;lat;lon;timestamp;temperature;humidity
69776;DHT22;57049;51.450;-2.516;2024-01-30T00:01:39;10.41;99.61
69776;DHT22;57049;51.450;-2.516;2024-01-30T00:04:05;10.41;99.59
69776;DHT22;57049;51.450;-2.516;2024-01-30T00:06:30;10.40;99.62
69776;DHT22;57049;51.450;-2.516;2024-01-30T00:08:57;10.40;99.61
69776;DHT22;57049;51.450;-2.516;2024-01-30T00:11:22;10.41;99.52
69776;DHT22;57049;51.450;-2.516;2024-01-30T00:13:51;10.44;99.45
69776;DHT22;57049;51.450;-2.516;2024-01-30T00:16:21;10.45;99.39
69776;DHT22;57049;51.450;-2.516;2024-01-30T00:18:47;10.44;99.32
69776;DHT22;57049;51.450;-2.516;2024-01-30T00:21:13;10.38;99.49
69776;DHT22;57049;51.450;-2.516;2024-01-30T00:23:39;10.41;99.29
69776;DHT22;57049;51.450;-2.516;2024-01-30T00:26:05;10.37;99.41
69776;DHT22;57049;51.450;-2.516;2024-01-30T00:28:31;10.38;99.42
69776;DHT22;57049;51.450;-2.516;2024-01-30T00:30:57;10.38;99.38
69776;DHT22;57049;51.450;-2.516;2024-01-30T00:33:22;10.41;99.36
69776;DHT22;57049;51.450;-2.516;2024-01-30T00:35:48;10.37;99.43
69776;DHT22;57049;51.450;-2.516;2024-01-30T00:38:14;10.31;99.48
69776;DHT22;57049;51.450;-2.516;2024-01-30T00:40:39;10.36;99.53
69776;DHT22;57049;51.450;-2.516;2024-01-30T00:43:05;10.34;99.56
69776;DHT22;57049;51.450;-2.516;2024-01-30T00:45:31;10.36;99.49
69776;DHT22;57049;51.450;-2.516;2024-01-30T00:47:56;10.33;99.54
69776;DHT22;57049;51.450;-2.516;2024-01-30T00:50:22;10.34;99.53
69776;DHT22;57049;51.450;-2.516;2024-01-30T00:52:48;10.34;99.44
69776;DHT22;57049;51.450;-2.516;2024-01-30T00:55:14;10.40;99.33
69776;DHT22;57049;51.450;-2.516;2024-01-30T00:57:40;10.43;99.27
69776;DHT22;57049;51.450;-2.516;2024-01-30T01:00:06;10.41;99.15
69776;DHT22;57049;51.450;-2.516;2024-01-30T01:02:36;10.34;98.84
69776;DHT22;57049;51.450;-2.516;2024-01-30T01:05:03;10.30;98.17
69776;DHT22;57049;51.450;-2.516;2024-01-30T01:07:28;10.14;97.62
69776;DHT22;57049;51.450;-2.516;2024-01-30T01:09:54;10.04;97.55
69776;DHT22;57049;51.450;-2.516;2024-01-30T01:12:20;9.90;97.49
69776;DHT22;57049;51.450;-2.516;2024-01-30T01:14:45;9.72;97.53
69776;DHT22;57049;51.450;-2.516;2024-01-30T01:17:11;9.50;97.69
69776;DHT22;57049;51.450;-2.516;2024-01-30T01:19:37;9.29;97.85
69776;DHT22;57049;51.450;-2.516;2024-01-30T01:22:03;9.10;98.43
69776;DHT22;57049;51.450;-2.516;2024-01-30T01:24:31;9.03;98.55
69776;DHT22;57049;51.450;-2.516;2024-01-30T01:26:58;8.91;98.95
69776;DHT22;57049;51.450;-2.516;2024-01-30T01:29:24;8.88;98.89
69776;DHT22;57049;51.450;-2.516;2024-01-30T01:31:56;8.85;98.81
69776;DHT22;57049;51.450;-2.516;2024-01-30T01:34:22;8.77;98.93
69776;DHT22;57049;51.450;-2.516;2024-01-30T01:36:49;8.76;99.07
69776;DHT22;57049;51.450;-2.516;2024-01-30T01:39:14;8.76;99.08
69776;DHT22;57049;51.450;-2.516;2024-01-30T01:41:40;8.70;98.98
69776;DHT22;57049;51.450;-2.516;2024-01-30T01:44:07;8.64;98.86
69776;DHT22;57049;51.450;-2.516;2024-01-30T01:46:33;8.64;98.97
69776;DHT22;57049;51.450;-2.516;2024-01-30T01:49:00;8.57;98.84
69776;DHT22;57049;51.450;-2.516;2024-01-30T01:51:27;8.54;98.80
69776;DHT22;57049;51.450;-2.516;2024-01-30T01:53:55;8.50;98.80
69776;DHT22;57049;51.450;-2.516;2024-01-30T01:56:22;8.46;98.74
69776;DHT22;57049;51.450;-2.516;2024-01-30T01:58:49;8.43;98.68
69776;DHT22;57049;51.450;-2.516;2024-01-30T02:01:16;8.42;98.46
69776;DHT22;57049;51.450;-2.516;2024-01-30T02:03:44;8.40;98.40
69776;DHT22;57049;51.450;-2.516;2024-01-30T02:06:10;8.43;98.31
69776;DHT22;57049;51.450;-2.516;2024-01-30T02:08:37;8.40;98.09
69776;DHT22;57049;51.450;-2.516;2024-01-30T02:11:03;8.33;98.02
69776;DHT22;57049;51.450;-2.516;2024-01-30T02:13:28;8.37;98.00
69776;DHT22;57049;51.450;-2.516;2024-01-30T02:15:54;8.36;98.11
69776;DHT22;57049;51.450;-2.516;2024-01-30T02:18:20;8.30;98.13
69776;DHT22;57049;51.450;-2.516;2024-01-30T02:20:48;8.26;98.20
69776;DHT22;57049;51.450;-2.516;2024-01-30T02:23:15;8.22;98.05
69776;DHT22;57049;51.450;-2.516;2024-01-30T02:25:42;8.24;98.13
69776;DHT22;57049;51.450;-2.516;2024-01-30T02:28:15;8.25;98.10
69776;DHT22;57049;51.450;-2.516;2024-01-30T02:30:44;8.16;97.86
69776;DHT22;57049;51.450;-2.516;2024-01-30T02:33:10;8.21;97.93
69776;DHT22;57049;51.450;-2.516;2024-01-30T02:35:35;8.16;97.92
69776;DHT22;57049;51.450;-2.516;2024-01-30T02:38:01;8.06;97.79
69776;DHT22;57049;51.450;-2.516;2024-01-30T02:40:27;8.09;97.73
69776;DHT22;57049;51.450;-2.516;2024-01-30T02:42:52;8.01;97.81
69776;DHT22;57049;51.450;-2.516;2024-01-30T02:45:18;8.05;97.75
69776;DHT22;57049;51.450;-2.516;2024-01-30T02:47:43;8.10;97.51
69776;DHT22;57049;51.450;-2.516;2024-01-30T02:50:09;8.07;97.39
69776;DHT22;57049;51.450;-2.516;2024-01-30T02:52:35;7.98;97.15
69776;DHT22;57049;51.450;-2.516;2024-01-30T02:55:01;8.01;97.30
69776;DHT22;57049;51.450;-2.516;2024-01-30T02:57:27;7.92;97.13
69776;DHT22;57049;51.450;-2.516;2024-01-30T02:59:52;7.85;97.24
69776;DHT22;57049;51.450;-2.516;2024-01-30T03:02:18;7.82;97.24
69776;DHT22;57049;51.450;-2.516;2024-01-30T03:04:43;7.78;97.11
69776;DHT22;57049;51.450;-2.516;2024-01-30T03:07:09;7.75;96.82
69776;DHT22;57049;51.450;-2.516;2024-01-30T03:09:36;7.71;96.69
69776;DHT22;57049;51.450;-2.516;2024-01-30T03:12:02;7.68;96.66
69776;DHT22;57049;51.450;-2.516;2024-01-30T03:14:28;7.67;96.72
69776;DHT22;57049;51.450;-2.516;2024-01-30T03:16:54;7.64;96.48
69776;DHT22;57049;51.450;-2.516;2024-01-30T03:19:19;7.67;96.03
69776;DHT22;57049;51.450;-2.516;2024-01-30T03:21:44;7.65;95.79
69776;DHT22;57049;51.450;-2.516;2024-01-30T03:24:10;7.67;95.85
69776;DHT22;57049;51.450;-2.516;2024-01-30T03:26:38;7.71;95.75
69776;DHT22;57049;51.450;-2.516;2024-01-30T03:29:03;7.74;95.83
69776;DHT22;57049;51.450;-2.516;2024-01-30T03:31:29;7.74;95.84
69776;DHT22;57049;51.450;-2.516;2024-01-30T03:33:54;7.74;95.94
69776;DHT22;57049;51.450;-2.516;2024-01-30T03:36:20;7.73;95.84
69776;DHT22;57049;51.450;-2.516;2024-01-30T03:38:45;7.79;95.78
69776;DHT22;57049;51.450;-2.516;2024-01-30T03:41:11;7.77;95.57
69776;DHT22;57049;51.450;-2.516;2024-01-30T03:43:36;7.75;95.64
69776;DHT22;57049;51.450;-2.516;2024-01-30T03:46:02;7.75;95.62
69776;DHT22;57049;51.450;-2.516;2024-01-30T03:48:29;7.71;94.84
69776;DHT22;57049;51.450;-2.516;2024-01-30T03:50:54;7.73;94.78
69776;DHT22;57049;51.450;-2.516;2024-01-30T03:53:20;7.71;94.44
69776;DHT22;57049;51.450;-2.516;2024-01-30T03:55:45;7.75;94.56
69776;DHT22;57049;51.450;-2.516;2024-01-30T03:58:11;7.75;94.74
69776;DHT22;57049;51.450;-2.516;2024-01-30T04:00:36;7.74;94.73
69776;DHT22;57049;51.450;-2.516;2024-01-30T04:03:02;7.70;94.87
69776;DHT22;57049;51.450;-2.516;2024-01-30T04:05:28;7.75;95.19
69776;DHT22;57049;51.450;-2.516;2024-01-30T04:07:53;7.74;95.14
69776;DHT22;57049;51.450;-2.516;2024-01-30T04:10:19;7.67;95.28
69776;DHT22;57049;51.450;-2.516;2024-01-30T04:12:44;7.70;95.50
69776;DHT22;57049;51.450;-2.516;2024-01-30T04:15:10;7.67;95.45
69776;DHT22;57049;51.450;-2.516;2024-01-30T04:17:35;7.64;95.41
69776;DHT22;57049;51.450;-2.516;2024-01-30T04:20:01;7.63;95.36
69776;DHT22;57049;51.450;-2.516;2024-01-30T04:22:26;7.68;95.53
69776;DHT22;57049;51.450;-2.516;2024-01-30T04:24:52;7.67;95.43
69776;DHT22;57049;51.450;-2.516;2024-01-30T04:27:17;7.68;95.19
69776;DHT22;57049;51.450;-2.516;2024-01-30T04:29:44;7.71;94.94
69776;DHT22;57049;51.450;-2.516;2024-01-30T04:32:10;7.70;95.21
69776;DHT22;57049;51.450;-2.516;2024-01-30T04:34:36;7.68;95.13
69776;DHT22;57049;51.450;-2.516;2024-01-30T04:37:02;7.67;95.09
69776;DHT22;57049;51.450;-2.516;2024-01-30T04:39:28;7.68;95.17
69776;DHT22;57049;51.450;-2.516;2024-01-30T04:41:53;7.64;94.74
69776;DHT22;57049;51.450;-2.516;2024-01-30T04:44:19;7.68;94.85
69776;DHT22;57049;51.450;-2.516;2024-01-30T04:46:44;7.70;94.47
69776;DHT22;57049;51.450;-2.516;2024-01-30T04:49:10;7.71;94.03
69776;DHT22;57049;51.450;-2.516;2024-01-30T04:51:36;7.70;94.12
69776;DHT22;57049;51.450;-2.516;2024-01-30T04:54:01;7.73;94.33
69776;DHT22;57049;51.450;-2.516;2024-01-30T04:56:27;7.73;94.35
69776;DHT22;57049;51.450;-2.516;2024-01-30T04:58:52;7.74;94.34
69776;DHT22;57049;51.450;-2.516;2024-01-30T05:01:18;7.71;94.32
69776;DHT22;57049;51.450;-2.516;2024-01-30T05:03:43;7.68;94.32
69776;DHT22;57049;51.450;-2.516;2024-01-30T05:06:09;7.64;94.54
69776;DHT22;57049;51.450;-2.516;2024-01-30T05:08:34;7.67;94.72
69776;DHT22;57049;51.450;-2.516;2024-01-30T05:11:04;7.65;94.87
69776;DHT22;57049;51.450;-2.516;2024-01-30T05:13:33;7.57;95.06
69776;DHT22;57049;51.450;-2.516;2024-01-30T05:15:58;7.54;95.21
69776;DHT22;57049;51.450;-2.516;2024-01-30T05:18:24;7.51;95.42
69776;DHT22;57049;51.450;-2.516;2024-01-30T05:20:50;7.54;95.38
69776;DHT22;57049;51.450;-2.516;2024-01-30T05:23:16;7.55;95.32
69776;DHT22;57049;51.450;-2.516;2024-01-30T05:25:41;7.48;95.23
69776;DHT22;57049;51.450;-2.516;2024-01-30T05:28:07;7.54;95.36
69776;DHT22;57049;51.450;-2.516;2024-01-30T05:30:32;7.51;95.20
69776;DHT22;57049;51.450;-2.516;2024-01-30T05:32:57;7.54;94.95
69776;DHT22;57049;51.450;-2.516;2024-01-30T05:35:23;7.51;94.99
69776;DHT22;57049;51.450;-2.516;2024-01-30T05:37:49;7.57;94.92
69776;DHT22;57049;51.450;-2.516;2024-01-30T05:40:15;7.57;94.91
69776;DHT22;57049;51.450;-2.516;2024-01-30T05:42:41;7.55;95.02
69776;DHT22;57049;51.450;-2.516;2024-01-30T05:45:06;7.60;95.02
69776;DHT22;57049;51.450;-2.516;2024-01-30T05:47:33;7.55;95.11
69776;DHT22;57049;51.450;-2.516;2024-01-30T05:49:58;7.51;95.23
69776;DHT22;57049;51.450;-2.516;2024-01-30T05:52:24;7.48;95.51
69776;DHT22;57049;51.450;-2.516;2024-01-30T05:54:50;7.48;95.60
69776;DHT22;57049;51.450;-2.516;2024-01-30T05:57:16;7.51;95.72
69776;DHT22;57049;51.450;-2.516;2024-01-30T05:59:41;7.54;95.51
69776;DHT22;57049;51.450;-2.516;2024-01-30T06:02:07;7.51;95.53
69776;DHT22;57049;51.450;-2.516;2024-01-30T06:04:32;7.46;95.81
69776;DHT22;57049;51.450;-2.516;2024-01-30T06:06:58;7.47;95.86
69776;DHT22;57049;51.450;-2.516;2024-01-30T06:09:26;7.46;95.87
69776;DHT22;57049;51.450;-2.516;2024-01-30T06:11:52;7.43;96.10
69776;DHT22;57049;51.450;-2.516;2024-01-30T06:14:17;7.44;96.29
69776;DHT22;57049;51.450;-2.516;2024-01-30T06:16:43;7.34;96.45
69776;DHT22;57049;51.450;-2.516;2024-01-30T06:19:08;7.40;96.76
69776;DHT22;57049;51.450;-2.516;2024-01-30T06:21:34;7.34;96.87
69776;DHT22;57049;51.450;-2.516;2024-01-30T06:24:02;7.35;97.23
69776;DHT22;57049;51.450;-2.516;2024-01-30T06:26:28;7.33;97.29
69776;DHT22;57049;51.450;-2.516;2024-01-30T06:28:53;7.27;97.59
69776;DHT22;57049;51.450;-2.516;2024-01-30T06:31:19;7.28;97.81
69776;DHT22;57049;51.450;-2.516;2024-01-30T06:33:47;7.31;97.75
69776;DHT22;57049;51.450;-2.516;2024-01-30T06:36:12;7.27;97.66
69776;DHT22;57049;51.450;-2.516;2024-01-30T06:38:38;7.26;97.70
69776;DHT22;57049;51.450;-2.516;2024-01-30T06:41:03;7.26;97.68
69776;DHT22;57049;51.450;-2.516;2024-01-30T06:43:29;7.28;97.50
69776;DHT22;57049;51.450;-2.516;2024-01-30T06:45:54;7.27;97.57
69776;DHT22;57049;51.450;-2.516;2024-01-30T06:48:20;7.30;97.59
69776;DHT22;57049;51.450;-2.516;2024-01-30T06:50:45;7.31;97.44
69776;DHT22;57049;51.450;-2.516;2024-01-30T06:53:11;7.31;97.37
69776;DHT22;57049;51.450;-2.516;2024-01-30T06:55:36;7.37;97.26
69776;DHT22;57049;51.450;-2.516;2024-01-30T06:58:02;7.30;97.12
69776;DHT22;57049;51.450;-2.516;2024-01-30T07:00:28;7.31;97.06
69776;DHT22;57049;51.450;-2.516;2024-01-30T07:02:53;7.31;96.99
69776;DHT22;57049;51.450;-2.516;2024-01-30T07:05:18;7.30;97.18
69776;DHT22;57049;51.450;-2.516;2024-01-30T07:07:44;7.30;97.00
69776;DHT22;57049;51.450;-2.516;2024-01-30T07:10:10;7.28;97.09
69776;DHT22;57049;51.450;-2.516;2024-01-30T07:12:35;7.30;97.29
69776;DHT22;57049;51.450;-2.516;2024-01-30T07:15:00;7.27;97.29
69776;DHT22;57049;51.450;-2.516;2024-01-30T07:17:28;7.24;97.39
69776;DHT22;57049;51.450;-2.516;2024-01-30T07:19:53;7.26;97.39
69776;DHT22;57049;51.450;-2.516;2024-01-30T07:22:19;7.26;97.41
69776;DHT22;57049;51.450;-2.516;2024-01-30T07:24:44;7.22;97.40
69776;DHT22;57049;51.450;-2.516;2024-01-30T07:27:12;7.26;97.40
69776;DHT22;57049;51.450;-2.516;2024-01-30T07:29:38;7.23;97.30
69776;DHT22;57049;51.450;-2.516;2024-01-30T07:32:04;7.20;97.37
69776;DHT22;57049;51.450;-2.516;2024-01-30T07:34:29;7.16;97.42
69776;DHT22;57049;51.450;-2.516;2024-01-30T07:36:55;7.20;97.38
69776;DHT22;57049;51.450;-2.516;2024-01-30T07:39:20;7.19;97.30
69776;DHT22;57049;51.450;-2.516;2024-01-30T07:41:46;7.12;97.21
69776;DHT22;57049;51.450;-2.516;2024-01-30T07:44:11;7.06;97.45
69776;DHT22;57049;51.450;-2.516;2024-01-30T07:46:37;7.07;97.52
69776;DHT22;57049;51.450;-2.516;2024-01-30T07:49:02;7.06;97.66
69776;DHT22;57049;51.450;-2.516;2024-01-30T07:51:28;7.02;97.73
69776;DHT22;57049;51.450;-2.516;2024-01-30T07:53:54;7.00;97.77
69776;DHT22;57049;51.450;-2.516;2024-01-30T07:56:20;7.04;97.76
69776;DHT22;57049;51.450;-2.516;2024-01-30T07:58:46;7.04;97.70
69776;DHT22;57049;51.450;-2.516;2024-01-30T08:01:11;7.07;97.63
69776;DHT22;57049;51.450;-2.516;2024-01-30T08:03:37;7.06;97.59
69776;DHT22;57049;51.450;-2.516;2024-01-30T08:06:05;7.09;97.49
69776;DHT22;57049;51.450;-2.516;2024-01-30T08:08:31;7.09;97.40
69776;DHT22;57049;51.450;-2.516;2024-01-30T08:10:57;7.03;97.53
69776;DHT22;57049;51.450;-2.516;2024-01-30T08:13:22;7.10;97.35
69776;DHT22;57049;51.450;-2.516;2024-01-30T08:15:48;7.10;97.30
69776;DHT22;57049;51.450;-2.516;2024-01-30T08:18:13;7.09;97.32
69776;DHT22;57049;51.450;-2.516;2024-01-30T08:20:39;7.10;97.45
69776;DHT22;57049;51.450;-2.516;2024-01-30T08:23:04;7.19;97.30
69776;DHT22;57049;51.450;-2.516;2024-01-30T08:25:32;7.17;97.10
69776;DHT22;57049;51.450;-2.516;2024-01-30T08:27:58;7.16;96.83
69776;DHT22;57049;51.450;-2.516;2024-01-30T08:30:23;7.17;96.83
69776;DHT22;57049;51.450;-2.516;2024-01-30T08:32:49;7.12;96.68
69776;DHT22;57049;51.450;-2.516;2024-01-30T08:35:14;7.06;96.80
69776;DHT22;57049;51.450;-2.516;2024-01-30T08:37:41;7.02;96.55
69776;DHT22;57049;51.450;-2.516;2024-01-30T08:40:07;6.97;96.54
69776;DHT22;57049;51.450;-2.516;2024-01-30T08:42:33;6.95;96.67
69776;DHT22;57049;51.450;-2.516;2024-01-30T08:44:59;6.90;96.64
69776;DHT22;57049;51.450;-2.516;2024-01-30T08:47:24;6.86;96.76
69776;DHT22;57049;51.450;-2.516;2024-01-30T08:49:51;6.85;96.86
69776;DHT22;57049;51.450;-2.516;2024-01-30T08:52:16;6.83;96.98
69776;DHT22;57049;51.450;-2.516;2024-01-30T08:54:42;6.82;96.91
69776;DHT22;57049;51.450;-2.516;2024-01-30T08:57:08;6.83;96.99
69776;DHT22;57049;51.450;-2.516;2024-01-30T09:11:37;6.72;97.15
69776;DHT22;57049;51.450;-2.516;2024-01-30T09:24:42;7.23;95.70
69776;DHT22;57049;51.450;-2.516;2024-01-30T09:31:09;7.27;95.47
69776;DHT22;57049;51.450;-2.516;2024-01-30T09:34:34;7.33;95.22
69776;DHT22;57049;51.450;-2.516;2024-01-30T10:06:52;7.70;92.86
69776;DHT22;57049;51.450;-2.516;2024-01-30T10:17:27;7.94;93.21
69776;DHT22;57049;51.450;-2.516;2024-01-30T10:21:02;7.98;92.75
69776;DHT22;57049;51.450;-2.516;2024-01-30T10:38:21;7.89;93.09
69776;DHT22;57049;51.450;-2.516;2024-01-30T10:45:54;7.84;93.33
69776;DHT22;57049;51.450;-2.516;2024-01-30T10:52:50;7.95;93.19
69776;DHT22;57049;51.450;-2.516;2024-01-30T10:56:09;7.99;93.13
69776;DHT22;57049;51.450;-2.516;2024-01-30T11:30:38;7.98;91.04
69776;DHT22;57049;51.450;-2.516;2024-01-30T11:44:22;7.70;92.73
69776;DHT22;57049;51.450;-2.516;2024-01-30T12:12:01;8.29;90.41
69776;DHT22;57049;51.450;-2.516;2024-01-30T12:42:41;8.36;84.54
69776;DHT22;57049;51.450;-2.516;2024-01-30T13:14:14;8.46;80.50
69776;DHT22;57049;51.450;-2.516;2024-01-30T13:49:31;8.40;79.97
69776;DHT22;57049;51.450;-2.516;2024-01-30T15:01:57;8.46;84.11
69776;DHT22;57049;51.450;-2.516;2024-01-30T15:11:53;8.42;82.53
69776;DHT22;57049;51.450;-2.516;2024-01-30T15:36:11;8.29;79.84
69776;DHT22;57049;51.450;-2.516;2024-01-30T15:38:53;8.30;79.47
69776;DHT22;57049;51.450;-2.516;2024-01-30T15:58:33;8.17;79.63
69776;DHT22;57049;51.450;-2.516;2024-01-30T16:01:52;8.12;79.08
69776;DHT22;57049;51.450;-2.516;2024-01-30T16:04:42;8.10;78.97
69776;DHT22;57049;51.450;-2.516;2024-01-30T16:18:37;8.15;78.60
69776;DHT22;57049;51.450;-2.516;2024-01-30T16:24:28;8.06;77.91
69776;DHT22;57049;51.450;-2.516;2024-01-30T16:27:37;8.07;78.04
69776;DHT22;57049;51.450;-2.516;2024-01-30T16:55:14;7.88;78.34
69776;DHT22;57049;51.450;-2.516;2024-01-30T17:40:44;7.38;82.72
69776;DHT22;57049;51.450;-2.516;2024-01-30T17:43:47;7.34;81.39
69776;DHT22;57049;51.450;-2.516;2024-01-30T17:46:30;7.38;80.36
69776;DHT22;57049;51.450;-2.516;2024-01-30T17:49:18;7.40;79.25
69776;DHT22;57049;51.450;-2.516;2024-01-30T18:02:28;7.54;79.16
69776;DHT22;57049;51.450;-2.516;2024-01-30T19:29:10;7.24;83.45
69776;DHT22;57049;51.450;-2.516;2024-01-30T19:32:12;7.24;83.91
69776;DHT22;57049;51.450;-2.516;2024-01-30T20:45:40;6.73;85.15
69776;DHT22;57049;51.450;-2.516;2024-01-30T22:00:03;4.60;92.73
69776;DHT22;57049;51.450;-2.516;2024-01-30T22:20:15;3.99;93.44
69776;DHT22;57049;51.450;-2.516;2024-01-30T23:04:37;3.13;95.34
69776;DHT22;57049;51.450;-2.516;2024-01-30T23:35:22;3.32;95.34
69776;DHT22;57049;51.450;-2.516;2024-01-30T23:44:51;3.55;95.08
69776;DHT22;57049;51.450;-2.516;2024-01-30T23:59:02;3.95;94.09
